Time;durP1;ratioP1;P1;durP2;ratioP2;P2;SDS_P1;SDS_P2;PMS_P1;PMS_P2;Temp;Humidity;BMP_temperature;BMP_pressure;BME280_temperature;BME280_humidity;BME280_pressure;Samples;Min_cycle;Max_cycle;Signal;HPM_P1;HPM_P2
2021/11/11 00:00:47;;;;;;;52.10;22.50;;;13.20;99.70;;;;;;5103687;28;20412;-72
2021/11/11 00:03:14;;;;;;;49.55;22.50;;;13.20;99.70;;;;;;5103985;28;20764;-73
2021/11/11 00:05:40;;;;;;;51.72;22.50;;;13.20;99.60;;;;;;5100509;28;20841;-72
2021/11/11 00:08:06;;;;;;;52.58;22.83;;;13.20;99.40;;;;;;5096797;28;20496;-73
2021/11/11 00:10:32;;;;;;;54.63;23.33;;;13.20;99.50;;;;;;5099948;28;20545;-72
2021/11/11 00:12:59;;;;;;;49.33;22.73;;;13.20;99.60;;;;;;5101728;28;20407;-73
2021/11/11 00:15:28;;;;;;;52.03;22.10;;;13.20;99.50;;;;;;5098148;28;20453;-72
2021/11/11 00:17:54;;;;;;;48.55;21.83;;;13.20;99.40;;;;;;5095027;28;20415;-74
2021/11/11 00:20:24;;;;;;;47.67;22.20;;;13.10;99.50;;;;;;5099615;28;20428;-73
2021/11/11 00:22:51;;;;;;;50.58;21.88;;;13.10;99.40;;;;;;5100911;28;20449;-73
2021/11/11 00:25:19;;;;;;;46.88;23.13;;;13.10;99.50;;;;;;5085992;28;20419;-72
2021/11/11 00:27:46;;;;;;;52.53;22.25;;;13.10;99.80;;;;;;5094164;28;20417;-72
2021/11/11 00:30:16;;;;;;;51.38;22.15;;;13.00;99.80;;;;;;5082557;28;20510;-72
2021/11/11 00:32:42;;;;;;;53.20;22.88;;;13.00;99.90;;;;;;5096306;28;20444;-73
2021/11/11 00:35:16;;;;;;;50.88;22.98;;;12.90;99.90;;;;;;5083328;28;20420;-73
2021/11/11 00:37:42;;;;;;;47.70;22.88;;;12.90;99.90;;;;;;5099067;28;20406;-74
2021/11/11 00:40:09;;;;;;;45.95;21.95;;;12.90;99.90;;;;;;5095826;28;20449;-72
2021/11/11 00:42:35;;;;;;;47.90;22.00;;;12.80;99.90;;;;;;5101647;28;22641;-72
2021/11/11 00:45:02;;;;;;;48.67;23.13;;;12.80;99.90;;;;;;5063064;28;20424;-72
2021/11/11 00:47:28;;;;;;;50.70;22.73;;;12.80;99.90;;;;;;5102486;28;20412;-74
2021/11/11 00:49:53;;;;;;;46.10;22.10;;;12.80;99.90;;;;;;5102489;28;20741;-73
2021/11/11 00:52:19;;;;;;;52.90;22.65;;;12.80;99.90;;;;;;5078526;28;20898;-73
2021/11/11 00:54:46;;;;;;;52.47;23.60;;;12.80;99.90;;;;;;5104607;28;20447;-73
2021/11/11 00:57:25;;;;;;;49.15;23.27;;;12.80;99.90;;;;;;5079373;28;21025;-73
2021/11/11 00:59:51;;;;;;;44.93;22.70;;;12.80;99.90;;;;;;5104956;28;20424;-72
2021/11/11 01:02:17;;;;;;;48.53;23.20;;;12.80;99.90;;;;;;5105120;28;20412;-74
2021/11/11 01:04:42;;;;;;;45.53;23.13;;;12.80;99.90;;;;;;5104683;28;20987;-73
2021/11/11 01:07:09;;;;;;;48.78;23.60;;;12.80;99.90;;;;;;5100198;28;20416;-73
2021/11/11 01:09:37;;;;;;;46.25;23.33;;;12.80;99.90;;;;;;5075162;28;20488;-74
2021/11/11 01:12:03;;;;;;;46.43;22.80;;;12.80;99.90;;;;;;5075604;28;20405;-73
2021/11/11 01:14:29;;;;;;;51.03;23.30;;;12.80;99.90;;;;;;5102621;28;20425;-74
2021/11/11 01:16:56;;;;;;;45.27;21.83;;;12.80;99.90;;;;;;5104092;28;20404;-72
2021/11/11 01:19:22;;;;;;;45.90;22.40;;;12.90;99.90;;;;;;5082586;28;20431;-73
2021/11/11 01:21:49;;;;;;;44.63;22.20;;;12.90;99.90;;;;;;5079883;28;20423;-73
2021/11/11 01:24:15;;;;;;;48.83;22.30;;;12.90;99.90;;;;;;5076567;28;21256;-73
2021/11/11 01:26:41;;;;;;;47.10;22.40;;;12.90;99.90;;;;;;5079676;28;20422;-73
2021/11/11 01:29:07;;;;;;;47.73;21.87;;;13.00;99.90;;;;;;5071465;28;20781;-73
2021/11/11 01:31:33;;;;;;;46.03;22.05;;;13.00;99.90;;;;;;5101993;28;20460;-72
2021/11/11 01:33:59;;;;;;;49.88;23.02;;;13.00;99.90;;;;;;5082554;28;21156;-73
2021/11/11 01:36:26;;;;;;;48.45;22.58;;;13.00;99.90;;;;;;5076392;28;20416;-72
2021/11/11 01:38:57;;;;;;;47.40;21.88;;;13.00;99.90;;;;;;5069855;28;20447;-73
2021/11/11 01:41:34;;;;;;;42.50;22.00;;;13.00;99.90;;;;;;5078301;28;20520;-72
2021/11/11 01:44:02;;;;;;;43.10;21.75;;;13.00;99.90;;;;;;5073028;28;21355;-73
2021/11/11 01:46:28;;;;;;;48.20;23.10;;;13.00;99.90;;;;;;5080877;28;20406;-73
2021/11/11 01:48:55;;;;;;;47.42;22.90;;;13.00;99.90;;;;;;5078070;28;20828;-73
2021/11/11 01:51:23;;;;;;;46.00;22.38;;;13.00;99.90;;;;;;5099027;28;20481;-73
2021/11/11 01:53:57;;;;;;;47.13;22.25;;;13.00;99.90;;;;;;5072661;28;20427;-71
2021/11/11 01:56:23;;;;;;;48.55;22.42;;;13.00;99.90;;;;;;5078969;28;20431;-71
2021/11/11 01:58:50;;;;;;;42.50;21.88;;;13.00;99.90;;;;;;5078631;28;20409;-72
2021/11/11 02:01:17;;;;;;;42.08;21.80;;;13.00;99.90;;;;;;5094583;28;20424;-71
2021/11/11 02:03:44;;;;;;;42.17;22.05;;;12.90;99.90;;;;;;5076367;28;20421;-72
2021/11/11 02:06:18;;;;;;;44.97;21.95;;;12.90;99.90;;;;;;5079148;28;20410;-70
2021/11/11 02:09:10;;;;;;;45.00;22.40;;;12.90;99.90;;;;;;5090797;28;20411;-72
2021/11/11 02:11:55;;;;;;;48.00;22.60;;;12.90;99.90;;;;;;5096259;28;20474;-71
2021/11/11 02:14:21;;;;;;;45.13;22.60;;;12.90;99.90;;;;;;5079751;28;20417;-72
2021/11/11 02:16:48;;;;;;;41.33;22.67;;;12.90;99.90;;;;;;5081580;28;20416;-71
2021/11/11 02:19:28;;;;;;;47.55;22.70;;;12.90;99.90;;;;;;5076966;28;20971;-73
2021/11/11 02:21:54;;;;;;;41.00;21.83;;;12.90;99.90;;;;;;5080366;28;20406;-71
2021/11/11 02:24:30;;;;;;;42.88;21.67;;;12.90;99.90;;;;;;5082534;28;20412;-72
2021/11/11 02:27:06;;;;;;;42.88;23.05;;;12.90;99.90;;;;;;5082132;28;20404;-72
2021/11/11 02:29:32;;;;;;;42.40;22.37;;;12.90;99.90;;;;;;5075474;28;20900;-73
2021/11/11 02:31:58;;;;;;;40.95;21.70;;;12.90;99.90;;;;;;5093648;28;20486;-72
2021/11/11 02:34:29;;;;;;;43.65;22.67;;;12.90;99.90;;;;;;5085504;28;20484;-72
2021/11/11 02:37:05;;;;;;;43.60;22.52;;;13.00;99.90;;;;;;5077621;28;20405;-74
2021/11/11 02:39:59;;;;;;;47.35;23.55;;;13.00;99.90;;;;;;5063684;28;20422;-72
2021/11/11 02:42:34;;;;;;;44.70;22.02;;;12.90;99.90;;;;;;5081516;28;20401;-72
2021/11/11 02:45:06;;;;;;;44.30;22.50;;;12.90;99.90;;;;;;5094940;28;20413;-71
2021/11/11 02:47:40;;;;;;;43.72;22.90;;;12.90;99.90;;;;;;5065719;28;20465;-73
2021/11/11 02:50:06;;;;;;;43.28;22.88;;;12.90;99.90;;;;;;5101087;28;20404;-72
2021/11/11 02:52:32;;;;;;;43.83;23.00;;;12.90;99.90;;;;;;5082465;28;20438;-72
2021/11/11 02:54:58;;;;;;;45.07;23.40;;;12.90;99.90;;;;;;5076304;28;20432;-72
2021/11/11 02:57:32;;;;;;;41.22;23.15;;;12.90;99.90;;;;;;5066128;28;20414;-73
2021/11/11 03:00:12;;;;;;;46.83;22.95;;;12.90;99.90;;;;;;5078670;28;20489;-72
2021/11/11 03:02:40;;;;;;;46.17;23.60;;;12.90;99.90;;;;;;5099150;28;20402;-72
2021/11/11 03:05:12;;;;;;;42.28;22.75;;;12.90;99.90;;;;;;5071014;28;20760;-71
2021/11/11 03:07:39;;;;;;;46.75;23.75;;;12.90;99.90;;;;;;5087423;28;20506;-72
2021/11/11 03:10:08;;;;;;;46.23;23.10;;;12.90;99.90;;;;;;5082502;28;20408;-71
2021/11/11 03:12:35;;;;;;;45.77;23.77;;;12.90;99.90;;;;;;5070182;28;20404;-71
2021/11/11 03:15:02;;;;;;;43.75;22.73;;;12.90;99.90;;;;;;5100331;28;20408;-71
2021/11/11 03:17:27;;;;;;;44.85;23.33;;;12.90;99.90;;;;;;5082915;28;20453;-71
2021/11/11 03:19:53;;;;;;;42.73;23.13;;;12.90;99.90;;;;;;5079355;28;20428;-70
2021/11/11 03:22:20;;;;;;;43.80;23.30;;;12.90;99.90;;;;;;5101554;28;20416;-71
2021/11/11 03:24:49;;;;;;;46.25;23.25;;;12.90;99.90;;;;;;5086272;28;20413;-71
2021/11/11 03:27:16;;;;;;;48.00;23.63;;;12.90;99.90;;;;;;5084394;28;20535;-71
2021/11/11 03:29:43;;;;;;;42.35;24.15;;;12.90;99.90;;;;;;5094771;28;20437;-71
2021/11/11 03:32:09;;;;;;;46.33;24.10;;;12.90;99.90;;;;;;5102789;28;20486;-71
2021/11/11 03:34:40;;;;;;;45.10;24.52;;;12.90;99.90;;;;;;5079766;28;20413;-71
2021/11/11 03:37:09;;;;;;;45.72;24.15;;;12.80;99.90;;;;;;5084015;28;20412;-71
2021/11/11 03:39:36;;;;;;;42.45;24.52;;;12.80;99.90;;;;;;5076853;28;20624;-71
2021/11/11 03:42:03;;;;;;;42.58;24.33;;;12.80;99.90;;;;;;5081464;28;20494;-71
2021/11/11 03:44:29;;;;;;;44.33;24.08;;;12.80;99.90;;;;;;5081957;28;20414;-71
2021/11/11 03:46:59;;;;;;;50.00;25.67;;;12.80;99.90;;;;;;5083191;28;20409;-72
2021/11/11 03:49:25;;;;;;;51.10;25.52;;;12.80;99.90;;;;;;5077964;28;20403;-71
2021/11/11 03:51:52;;;;;;;45.22;24.65;;;12.70;99.90;;;;;;5076374;28;20411;-71
2021/11/11 03:54:21;;;;;;;43.92;24.67;;;12.80;99.90;;;;;;5082469;28;20422;-71
2021/11/11 03:56:48;;;;;;;49.90;26.00;;;12.70;99.90;;;;;;5082286;28;20410;-72
2021/11/11 03:59:16;;;;;;;48.05;25.83;;;12.70;99.90;;;;;;5082429;28;20496;-72
2021/11/11 04:01:42;;;;;;;49.88;25.80;;;12.70;99.90;;;;;;5073374;28;20442;-72
2021/11/11 04:04:08;;;;;;;48.90;25.90;;;12.70;99.90;;;;;;5082052;28;20402;-72
2021/11/11 04:06:34;;;;;;;49.28;26.63;;;12.70;99.90;;;;;;5072265;28;21201;-72
2021/11/11 04:09:00;;;;;;;48.75;26.75;;;12.70;99.90;;;;;;5098187;28;20418;-72
2021/11/11 04:11:30;;;;;;;51.55;26.98;;;12.70;99.90;;;;;;5082146;28;20403;-71
2021/11/11 04:13:57;;;;;;;51.50;26.85;;;12.70;99.90;;;;;;5080186;28;20494;-72
2021/11/11 04:16:24;;;;;;;54.03;27.07;;;12.70;99.90;;;;;;5076705;28;20488;-73
2021/11/11 04:18:50;;;;;;;54.03;27.05;;;12.70;99.90;;;;;;5075635;28;20406;-73
2021/11/11 04:21:17;;;;;;;51.35;27.63;;;12.70;99.90;;;;;;5072910;28;20494;-72
2021/11/11 04:23:49;;;;;;;49.35;26.83;;;12.70;99.90;;;;;;5082133;28;20410;-71
2021/11/11 04:26:21;;;;;;;51.55;28.02;;;12.70;99.90;;;;;;5097555;28;20973;-72
2021/11/11 04:28:57;;;;;;;52.17;27.58;;;12.70;99.90;;;;;;5067788;28;20463;-72
2021/11/11 04:34:20;;;;;;;48.15;27.92;;;12.70;99.90;;;;;;5091058;28;20434;-73
2021/11/11 04:51:06;;;;;;;52.40;29.13;;;12.70;99.90;;;;;;5098114;28;20402;-74
2021/11/11 05:02:10;;;;;;;49.75;28.55;;;12.70;99.90;;;;;;5094992;28;20410;-74
2021/11/11 05:04:36;;;;;;;49.83;27.88;;;12.70;99.90;;;;;;5096502;28;20418;-73
2021/11/11 05:07:03;;;;;;;52.83;27.48;;;12.80;99.90;;;;;;5081541;28;20402;-74
2021/11/11 05:09:29;;;;;;;47.30;27.60;;;12.80;99.90;;;;;;5074886;28;20750;-72
2021/11/11 05:11:55;;;;;;;47.75;27.23;;;12.80;99.90;;;;;;5073249;28;20414;-74
2021/11/11 05:14:21;;;;;;;52.07;27.10;;;12.70;99.90;;;;;;5075467;28;20419;-74
2021/11/11 05:16:46;;;;;;;49.22;26.92;;;12.70;99.90;;;;;;5075291;28;20796;-73
2021/11/11 05:19:13;;;;;;;51.40;26.25;;;12.70;99.90;;;;;;5077413;28;20476;-73
2021/11/11 05:21:39;;;;;;;48.92;26.45;;;12.70;99.90;;;;;;5072486;28;20424;-72
2021/11/11 05:24:05;;;;;;;53.73;26.07;;;12.80;99.90;;;;;;5077524;28;20412;-73
2021/11/11 05:26:32;;;;;;;49.85;26.33;;;12.80;99.90;;;;;;5081370;28;20409;-73
2021/11/11 05:29:02;;;;;;;45.75;25.50;;;12.80;99.90;;;;;;5071761;28;20421;-74
2021/11/11 05:31:30;;;;;;;44.20;25.40;;;12.80;99.90;;;;;;5080057;28;20585;-74
2021/11/11 05:33:56;;;;;;;46.15;25.67;;;12.80;99.90;;;;;;5080985;28;20406;-74
2021/11/11 05:36:22;;;;;;;48.30;24.98;;;12.80;99.90;;;;;;5076564;28;20466;-73
2021/11/11 05:38:48;;;;;;;45.03;25.17;;;12.70;99.90;;;;;;5081047;28;20413;-74
2021/11/11 05:41:14;;;;;;;45.75;25.13;;;12.70;99.90;;;;;;5074621;28;20409;-73
2021/11/11 05:43:44;;;;;;;48.40;25.73;;;12.70;99.90;;;;;;5102354;28;20396;-73
2021/11/11 05:46:09;;;;;;;49.80;25.97;;;12.70;99.90;;;;;;5078087;28;20405;-75
2021/11/11 05:48:39;;;;;;;46.23;26.27;;;12.70;99.90;;;;;;5100365;28;20418;-74
2021/11/11 05:51:06;;;;;;;46.90;25.55;;;12.70;99.90;;;;;;5079651;28;20572;-74
2021/11/11 05:53:32;;;;;;;49.83;26.27;;;12.70;99.90;;;;;;5086483;28;20452;-72
2021/11/11 05:55:58;;;;;;;46.70;25.75;;;12.70;99.90;;;;;;5084525;28;20407;-72
2021/11/11 05:58:24;;;;;;;43.67;25.08;;;12.60;99.90;;;;;;5098940;28;20427;-73
2021/11/11 06:00:50;;;;;;;45.83;25.33;;;12.70;99.90;;;;;;5083332;28;20412;-73
2021/11/11 06:03:25;;;;;;;45.40;25.08;;;12.70;99.90;;;;;;5076994;28;20417;-72
2021/11/11 06:05:56;;;;;;;45.65;24.80;;;12.70;99.90;;;;;;5081696;28;20416;-73
2021/11/11 06:08:25;;;;;;;50.08;25.58;;;12.60;99.90;;;;;;5079069;28;20754;-73
2021/11/11 06:10:51;;;;;;;49.92;25.45;;;12.70;99.90;;;;;;5071720;28;20412;-74
2021/11/11 06:13:17;;;;;;;50.47;25.47;;;12.70;99.90;;;;;;5068801;28;20412;-75
2021/11/11 06:15:42;;;;;;;48.75;26.38;;;12.70;99.90;;;;;;5081137;28;20490;-73
2021/11/11 06:18:11;;;;;;;51.03;26.73;;;12.70;99.90;;;;;;5096118;28;20418;-75
2021/11/11 06:20:43;;;;;;;47.25;26.45;;;12.70;99.90;;;;;;5076408;28;20419;-74
2021/11/11 06:23:10;;;;;;;55.55;27.83;;;12.70;99.90;;;;;;5076444;28;20404;-73
2021/11/11 06:25:39;;;;;;;53.03;27.83;;;12.70;99.90;;;;;;5072716;28;20437;-74
2021/11/11 06:28:08;;;;;;;48.97;28.08;;;12.60;99.90;;;;;;5079105;28;20396;-74
2021/11/11 06:30:35;;;;;;;56.97;29.50;;;12.60;99.90;;;;;;5081556;28;20404;-73
2021/11/11 06:33:01;;;;;;;55.65;29.38;;;12.60;99.90;;;;;;5093235;28;20407;-75
2021/11/11 06:35:32;;;;;;;56.27;28.37;;;12.60;99.90;;;;;;5078155;28;20768;-71
2021/11/11 06:37:59;;;;;;;59.92;29.02;;;12.50;99.90;;;;;;5084059;28;20939;-73
2021/11/11 06:40:29;;;;;;;54.95;29.10;;;12.50;99.90;;;;;;5101834;28;20772;-71
2021/11/11 06:42:56;;;;;;;60.00;30.08;;;12.50;99.90;;;;;;5079636;28;20413;-73
2021/11/11 06:45:23;;;;;;;63.63;30.70;;;12.50;99.90;;;;;;5099741;28;20416;-72
2021/11/11 06:47:48;;;;;;;57.28;30.10;;;12.50;99.90;;;;;;5096355;28;20404;-72
2021/11/11 06:50:14;;;;;;;52.42;29.35;;;12.50;99.90;;;;;;5098112;28;20452;-72
2021/11/11 06:52:40;;;;;;;57.90;29.85;;;12.50;99.90;;;;;;5075831;28;20995;-73
2021/11/11 06:55:07;;;;;;;56.00;30.05;;;12.50;99.90;;;;;;5099686;28;20424;-72
2021/11/11 06:57:34;;;;;;;58.60;31.05;;;12.50;99.90;;;;;;5094283;28;20416;-72
2021/11/11 07:00:08;;;;;;;62.97;30.45;;;12.50;99.90;;;;;;5076331;28;20421;-72
2021/11/11 07:02:34;;;;;;;60.90;30.23;;;12.50;99.90;;;;;;5079367;28;21073;-72
2021/11/11 07:05:00;;;;;;;54.35;30.23;;;12.50;99.90;;;;;;5076881;28;20408;-72
2021/11/11 07:07:26;;;;;;;56.23;30.33;;;12.50;99.90;;;;;;5092849;28;20421;-71
2021/11/11 07:09:51;;;;;;;63.47;31.15;;;12.50;99.90;;;;;;5100768;28;20505;-73
2021/11/11 07:12:17;;;;;;;61.80;31.10;;;12.50;99.90;;;;;;5095600;28;20491;-71
2021/11/11 07:14:44;;;;;;;66.03;31.70;;;12.50;99.90;;;;;;5095897;28;20403;-72
2021/11/11 07:17:10;;;;;;;60.38;31.23;;;12.60;99.90;;;;;;5092260;28;20416;-72
2021/11/11 07:19:35;;;;;;;58.97;31.70;;;12.60;99.90;;;;;;5096729;28;20860;-71
2021/11/11 07:22:03;;;;;;;57.73;31.13;;;12.50;99.90;;;;;;5094513;28;20927;-71
2021/11/11 07:24:30;;;;;;;59.13;30.20;;;12.50;99.90;;;;;;5096490;28;20422;-72
2021/11/11 07:26:57;;;;;;;57.00;30.20;;;12.50;99.90;;;;;;5092491;28;20415;-72
2021/11/11 07:29:23;;;;;;;55.45;31.10;;;12.50;99.90;;;;;;5094833;28;20866;-71
2021/11/11 07:31:54;;;;;;;58.63;30.85;;;12.50;99.90;;;;;;5101009;28;20496;-71
2021/11/11 07:34:21;;;;;;;54.70;29.77;;;12.50;99.90;;;;;;5091042;28;20443;-72
2021/11/11 07:36:47;;;;;;;56.70;32.63;;;12.50;99.90;;;;;;5092402;28;20402;-71
2021/11/11 07:39:14;;;;;;;58.53;32.15;;;12.50;99.90;;;;;;5084545;28;20412;-72
2021/11/11 07:41:43;;;;;;;56.35;31.60;;;12.50;99.90;;;;;;5101748;28;20470;-75
2021/11/11 07:44:10;;;;;;;56.07;31.33;;;12.50;99.90;;;;;;5101081;28;20904;-72
2021/11/11 07:46:37;;;;;;;61.42;32.83;;;12.50;99.90;;;;;;5099902;28;20889;-72
2021/11/11 07:49:04;;;;;;;61.72;32.97;;;12.50;99.90;;;;;;5101794;28;20431;-72
2021/11/11 07:51:29;;;;;;;62.13;32.57;;;12.50;99.90;;;;;;5101110;28;20404;-73
2021/11/11 07:53:56;;;;;;;61.20;32.10;;;12.50;99.90;;;;;;5070052;28;20475;-73
2021/11/11 07:56:21;;;;;;;61.65;33.58;;;12.50;99.90;;;;;;5103808;28;20418;-73
2021/11/11 07:58:47;;;;;;;60.70;33.67;;;12.50;99.90;;;;;;5093789;28;20417;-73
2021/11/11 08:01:13;;;;;;;63.80;34.80;;;12.50;99.90;;;;;;5084085;28;20408;-73
2021/11/11 08:03:38;;;;;;;65.83;35.10;;;12.50;99.90;;;;;;5086083;28;20458;-73
2021/11/11 08:06:04;;;;;;;68.40;36.87;;;12.60;99.90;;;;;;5100206;28;20428;-75
2021/11/11 08:08:30;;;;;;;64.78;35.83;;;12.60;99.90;;;;;;5105981;28;20444;-74
2021/11/11 08:10:57;;;;;;;72.32;36.58;;;12.50;99.90;;;;;;5105440;28;20399;-75
2021/11/11 08:13:23;;;;;;;69.65;36.75;;;12.50;99.90;;;;;;5094708;28;20411;-75
2021/11/11 08:15:49;;;;;;;65.95;36.85;;;12.50;99.90;;;;;;5093179;28;20497;-76
2021/11/11 08:18:15;;;;;;;71.72;38.97;;;12.50;99.90;;;;;;5103906;28;20404;-75
2021/11/11 08:20:41;;;;;;;67.43;38.38;;;12.50;99.90;;;;;;5084031;28;21026;-75
2021/11/11 08:23:07;;;;;;;66.65;38.13;;;12.50;99.90;;;;;;5088709;28;20396;-74
2021/11/11 08:25:33;;;;;;;69.83;37.33;;;12.50;99.90;;;;;;5088043;28;20412;-75
2021/11/11 08:27:58;;;;;;;71.60;37.60;;;12.60;99.90;;;;;;5101761;28;20408;-73
2021/11/11 08:30:24;;;;;;;71.13;38.22;;;12.60;99.90;;;;;;5087076;28;20431;-74
2021/11/11 08:32:52;;;;;;;70.70;39.83;;;12.60;99.90;;;;;;5106665;28;20585;-75
2021/11/11 08:35:20;;;;;;;75.77;39.13;;;12.60;99.90;;;;;;5096802;28;20944;-75
2021/11/11 08:37:46;;;;;;;72.05;38.40;;;12.60;99.90;;;;;;5104454;28;20442;-74
2021/11/11 08:40:14;;;;;;;73.05;40.92;;;12.70;99.90;;;;;;5086445;28;20436;-76
2021/11/11 08:42:41;;;;;;;72.10;39.80;;;12.70;99.90;;;;;;5102608;28;20405;-77
2021/11/11 08:45:08;;;;;;;70.32;38.75;;;12.70;99.90;;;;;;5084256;28;20451;-74
2021/11/11 08:47:35;;;;;;;76.70;40.97;;;12.70;99.90;;;;;;5087421;28;20404;-77
2021/11/11 08:50:00;;;;;;;69.97;39.85;;;12.80;99.90;;;;;;5088501;28;20400;-77
2021/11/11 08:52:27;;;;;;;73.70;40.25;;;12.90;99.90;;;;;;5079946;28;20893;-76
2021/11/11 08:54:54;;;;;;;66.60;38.58;;;13.00;99.90;;;;;;5100405;28;20893;-76
2021/11/11 08:57:20;;;;;;;64.50;37.30;;;13.20;99.90;;;;;;5082247;28;20753;-73
2021/11/11 08:59:51;;;;;;;67.85;39.13;;;13.20;99.90;;;;;;5101510;28;20416;-74
2021/11/11 09:02:18;;;;;;;64.55;37.88;;;13.30;99.90;;;;;;5105105;28;20414;-75
2021/11/11 09:04:44;;;;;;;64.47;37.78;;;13.40;99.90;;;;;;5082735;28;20424;-75
2021/11/11 09:07:09;;;;;;;69.63;37.87;;;13.50;99.90;;;;;;5102530;28;20384;-74
2021/11/11 09:09:36;;;;;;;62.80;37.55;;;13.60;99.90;;;;;;5105880;28;20411;-75
2021/11/11 09:12:03;;;;;;;65.22;38.28;;;13.60;99.90;;;;;;5102495;28;20403;-74
2021/11/11 09:14:30;;;;;;;66.72;38.88;;;13.70;99.90;;;;;;5102402;28;20764;-76
2021/11/11 09:16:56;;;;;;;63.87;38.87;;;13.70;99.90;;;;;;5104084;28;20415;-75
2021/11/11 09:19:21;;;;;;;64.35;37.83;;;13.70;99.90;;;;;;5079780;28;20484;-75
2021/11/11 09:21:47;;;;;;;63.92;37.70;;;13.70;99.90;;;;;;5097613;28;20430;-75
2021/11/11 09:24:13;;;;;;;63.10;38.60;;;13.70;99.90;;;;;;5096909;28;20446;-74
2021/11/11 09:26:39;;;;;;;65.33;38.97;;;13.70;99.90;;;;;;5099438;28;20404;-73
2021/11/11 09:29:07;;;;;;;67.80;39.05;;;13.70;99.90;;;;;;5104443;28;20442;-74
2021/11/11 09:31:35;;;;;;;67.90;40.30;;;13.80;99.90;;;;;;5103024;28;20402;-74
2021/11/11 09:34:00;;;;;;;71.40;40.00;;;13.80;99.90;;;;;;5086432;28;20412;-75
2021/11/11 09:36:26;;;;;;;64.78;38.50;;;13.80;99.90;;;;;;5101181;28;20409;-74
2021/11/11 09:38:52;;;;;;;67.37;40.37;;;13.90;99.90;;;;;;5102748;28;20473;-75
2021/11/11 09:41:22;;;;;;;65.45;40.33;;;13.90;99.90;;;;;;5097116;28;20445;-73
2021/11/11 09:43:49;;;;;;;71.82;41.13;;;13.90;99.90;;;;;;5098069;28;20416;-74
2021/11/11 09:46:17;;;;;;;68.25;41.08;;;13.90;99.90;;;;;;5095930;28;20457;-74
2021/11/11 09:48:43;;;;;;;69.63;41.95;;;13.90;99.90;;;;;;5099862;28;20407;-75
2021/11/11 09:51:14;;;;;;;70.15;41.95;;;14.00;99.90;;;;;;5104719;28;20832;-74
2021/11/11 09:59:11;;;;;;;67.60;39.88;;;14.00;99.90;;;;;;5097927;28;20476;-74
2021/11/11 10:01:37;;;;;;;69.18;40.42;;;14.00;99.90;;;;;;5079109;28;20467;-75
2021/11/11 10:04:03;;;;;;;68.07;41.50;;;14.10;99.90;;;;;;5097462;28;20410;-74
2021/11/11 10:06:30;;;;;;;75.00;42.67;;;14.10;99.90;;;;;;5076249;28;20483;-75
2021/11/11 10:09:09;;;;;;;68.65;41.83;;;14.10;99.90;;;;;;5102446;28;20440;-74
2021/11/11 10:11:38;;;;;;;67.63;40.93;;;14.10;99.90;;;;;;5079402;28;20556;-75
2021/11/11 10:14:10;;;;;;;67.00;41.47;;;14.20;99.90;;;;;;5101502;28;20407;-73
2021/11/11 10:16:42;;;;;;;67.57;41.50;;;14.20;99.90;;;;;;5082613;28;20863;-73
2021/11/11 10:19:08;;;;;;;71.13;43.03;;;14.20;99.90;;;;;;5068128;28;20482;-74
2021/11/11 10:21:37;;;;;;;74.97;42.53;;;14.20;99.90;;;;;;5089923;28;20493;-73
2021/11/11 10:24:27;;;;;;;72.95;43.13;;;14.20;99.90;;;;;;5100690;28;20415;-73
2021/11/11 10:27:07;;;;;;;73.57;43.78;;;14.20;99.90;;;;;;5080478;28;20494;-70
2021/11/11 10:30:04;;;;;;;68.80;42.70;;;14.20;99.90;;;;;;5100242;28;21268;-76
2021/11/11 10:32:49;;;;;;;70.95;42.55;;;14.20;99.90;;;;;;5078068;28;20756;-78
2021/11/11 10:35:27;;;;;;;77.72;42.67;;;14.30;99.90;;;;;;5101509;28;20412;-76
2021/11/11 10:38:08;;;;;;;71.95;43.08;;;14.20;99.90;;;;;;5094468;28;20422;-76
2021/11/11 10:40:43;;;;;;;71.95;42.83;;;14.20;99.90;;;;;;5094144;28;20420;-75
2021/11/11 10:43:22;;;;;;;69.63;42.05;;;14.20;99.90;;;;;;5098185;28;20411;-75
2021/11/11 10:45:50;;;;;;;76.88;44.50;;;14.30;99.90;;;;;;5097042;28;20419;-74
2021/11/11 10:48:19;;;;;;;77.68;44.70;;;14.20;99.90;;;;;;5101212;28;20396;-76
2021/11/11 10:50:53;;;;;;;72.63;44.72;;;14.30;99.90;;;;;;5103824;28;20376;-75
2021/11/11 10:53:23;;;;;;;81.60;45.60;;;14.20;99.90;;;;;;5098678;28;20859;-75
2021/11/11 10:55:55;;;;;;;80.47;45.60;;;14.20;99.90;;;;;;5092548;28;20404;-75
2021/11/11 10:58:25;;;;;;;80.53;46.17;;;14.30;99.90;;;;;;5082377;28;20443;-76
2021/11/11 11:00:55;;;;;;;76.75;44.92;;;14.30;99.90;;;;;;5096442;28;20527;-75
2021/11/11 11:03:32;;;;;;;80.55;44.88;;;14.30;99.90;;;;;;5094981;28;20496;-76
2021/11/11 11:06:03;;;;;;;75.25;43.65;;;14.30;99.90;;;;;;5079837;28;20432;-77
2021/11/11 11:08:40;;;;;;;83.27;45.13;;;14.30;99.90;;;;;;5095873;28;20415;-75
2021/11/11 11:11:21;;;;;;;79.23;44.57;;;14.30;99.90;;;;;;5082244;28;21257;-74
2021/11/11 11:13:48;;;;;;;75.38;42.42;;;14.40;99.90;;;;;;5093331;28;20412;-75
2021/11/11 11:16:23;;;;;;;73.20;42.10;;;14.40;99.90;;;;;;5096938;28;20967;-74
2021/11/11 11:19:02;;;;;;;72.88;42.90;;;14.50;99.90;;;;;;5090990;28;20970;-74
2021/11/11 11:21:36;;;;;;;91.50;44.67;;;14.60;99.90;;;;;;5095601;28;20409;-75
2021/11/11 11:24:06;;;;;;;83.90;47.95;;;14.60;99.90;;;;;;5087576;28;20416;-76
2021/11/11 11:26:38;;;;;;;89.30;47.10;;;14.60;99.90;;;;;;5097152;28;20469;-74
2021/11/11 11:29:20;;;;;;;88.35;49.60;;;14.50;99.90;;;;;;5105118;28;20615;-75
2021/11/11 11:31:51;;;;;;;95.00;50.03;;;14.40;99.90;;;;;;5087843;28;20440;-75
2021/11/11 11:34:21;;;;;;;94.30;52.75;;;14.40;99.90;;;;;;5104197;28;20458;-77
2021/11/11 11:37:00;;;;;;;91.63;51.20;;;14.30;99.90;;;;;;5084142;28;20412;-78
2021/11/11 11:39:42;;;;;;;97.78;51.22;;;14.40;99.90;;;;;;5086638;28;21194;-79
2021/11/11 11:42:21;;;;;;;97.38;51.63;;;14.40;99.90;;;;;;5100238;28;20412;-76
2021/11/11 11:44:47;;;;;;;101.57;51.58;;;14.40;99.90;;;;;;5099213;28;20449;-77
2021/11/11 11:47:39;;;;;;;98.73;52.03;;;14.30;99.90;;;;;;5083993;28;20959;-75
2021/11/11 11:50:28;;;;;;;98.82;53.10;;;14.30;99.90;;;;;;5087482;28;20404;-75
2021/11/11 11:53:00;;;;;;;101.28;53.67;;;14.30;99.90;;;;;;5099927;28;20392;-75
2021/11/11 11:58:17;;;;;;;104.63;54.87;;;14.30;99.90;;;;;;5097414;28;20420;-74
2021/11/11 12:03:44;;;;;;;110.22;54.88;;;14.40;99.90;;;;;;5096948;28;20448;-75
2021/11/11 12:34:32;;;;;;;93.82;52.00;;;14.90;99.90;;;;;;5098715;28;20410;-76
2021/11/11 12:39:53;;;;;;;94.22;50.00;;;15.10;99.90;;;;;;5104730;28;20916;-77
2021/11/11 12:42:29;;;;;;;90.93;51.08;;;15.20;99.90;;;;;;5078149;28;20444;-75
2021/11/11 12:45:09;;;;;;;87.28;49.75;;;15.30;99.90;;;;;;5084475;28;20410;-76
2021/11/11 12:47:45;;;;;;;92.20;50.42;;;15.40;99.90;;;;;;5082390;28;20414;-76
2021/11/11 12:50:24;;;;;;;87.30;48.67;;;15.40;99.90;;;;;;5100922;28;20468;-78
2021/11/11 12:53:12;;;;;;;92.40;51.70;;;15.50;99.90;;;;;;5080766;28;20423;-75
2021/11/11 12:55:46;;;;;;;95.35;51.75;;;15.50;99.90;;;;;;5103929;28;20416;-75
2021/11/11 12:58:16;;;;;;;87.63;50.85;;;15.40;99.90;;;;;;5093537;28;20441;-75
2021/11/11 13:00:51;;;;;;;95.78;52.53;;;15.40;99.90;;;;;;5078362;28;20500;-76
2021/11/11 13:03:19;;;;;;;94.30;53.13;;;15.30;99.90;;;;;;5058970;28;20770;-76
2021/11/11 13:05:52;;;;;;;93.28;52.33;;;15.30;99.90;;;;;;5058530;28;20783;-76
2021/11/11 13:08:23;;;;;;;95.57;53.28;;;15.20;99.90;;;;;;5095626;28;20415;-76
2021/11/11 13:11:03;;;;;;;103.45;55.08;;;15.20;99.90;;;;;;5100626;28;20405;-76
2021/11/11 13:13:29;;;;;;;98.28;54.38;;;15.20;99.90;;;;;;5100557;28;20995;-76
2021/11/11 13:16:11;;;;;;;101.38;54.88;;;15.10;99.90;;;;;;5082795;28;20506;-76
2021/11/11 13:18:47;;;;;;;99.30;54.67;;;15.10;99.90;;;;;;5103033;28;20408;-76
2021/11/11 13:21:18;;;;;;;106.20;55.47;;;15.10;99.90;;;;;;5078935;28;20488;-77
2021/11/11 13:24:05;;;;;;;98.47;54.07;;;15.10;99.90;;;;;;5098136;28;20567;-76
2021/11/11 13:27:06;;;;;;;96.38;53.85;;;15.10;99.90;;;;;;5094610;28;20421;-77
2021/11/11 14:00:36;;;;;;;97.90;56.03;;;15.10;99.90;;;;;;5101101;28;20452;-77
2021/11/11 14:04:17;;;;;;;90.57;54.72;;;15.10;99.90;;;;;;5093125;28;20410;-78
2021/11/11 15:57:07;;;;;;;89.88;51.60;;;14.80;99.90;;;;;;5098617;28;20483;-76
2021/11/11 16:01:18;;;;;;;75.80;48.00;;;14.80;99.90;;;;;;5048096;28;20539;-77
2021/11/11 16:20:10;;;;;;;79.75;46.15;;;14.80;99.90;;;;;;5102206;28;20411;-79
2021/11/11 16:27:56;;;;;;;81.93;45.47;;;14.80;99.90;;;;;;5100636;28;20406;-79
2021/11/11 16:30:22;;;;;;;78.40;47.23;;;14.80;99.90;;;;;;5077413;28;20410;-79